createdAt,value
2018-11-13T00:01:36.548Z,3.00
2018-11-13T00:04:40.879Z,2.37
2018-11-13T00:07:45.427Z,1.80
2018-11-13T00:10:50.360Z,2.43
2018-11-13T00:13:54.775Z,2.00
2018-11-13T00:16:59.702Z,1.60
2018-11-13T00:20:04.147Z,2.40
2018-11-13T00:23:08.557Z,3.17
2018-11-13T00:26:12.968Z,1.70
2018-11-13T00:29:17.351Z,2.67
2018-11-13T00:32:21.961Z,4.20
2018-11-13T00:35:26.674Z,1.63
2018-11-13T00:38:31.356Z,4.13
2018-11-13T00:41:36.261Z,2.00
2018-11-13T00:44:41.102Z,2.73
2018-11-13T00:47:45.910Z,2.23
2018-11-13T00:50:50.501Z,1.77
2018-11-13T00:53:54.965Z,1.43
2018-11-13T00:56:59.528Z,1.27
2018-11-13T01:00:03.942Z,1.30
2018-11-13T01:03:08.374Z,1.93
2018-11-13T01:06:12.752Z,2.10
2018-11-13T01:09:17.131Z,1.83
2018-11-13T01:12:21.655Z,1.60
2018-11-13T01:15:26.073Z,1.20
2018-11-13T01:18:30.484Z,2.10
2018-11-13T01:21:34.852Z,1.02
2018-11-13T01:24:39.339Z,1.87
2018-11-13T01:27:44.512Z,0.93
2018-11-13T01:30:48.883Z,1.67
2018-11-13T01:33:53.294Z,1.33
2018-11-13T01:36:57.797Z,2.07
2018-11-13T01:40:02.340Z,1.00
2018-11-13T01:43:06.805Z,1.53
2018-11-13T01:46:11.287Z,1.50
2018-11-13T01:49:16.018Z,1.00
2018-11-13T01:52:20.421Z,1.03
2018-11-13T01:55:24.793Z,1.10
2018-11-13T01:58:29.251Z,1.20
2018-11-13T02:01:33.713Z,1.43
2018-11-13T02:04:38.228Z,0.80
2018-11-13T02:07:42.646Z,1.10
2018-11-13T02:10:47.070Z,1.97
2018-11-13T02:13:51.498Z,0.85
2018-11-13T02:16:55.938Z,1.30
2018-11-13T02:20:00.508Z,1.87
2018-11-13T02:23:04.978Z,0.90
2018-11-13T02:26:09.387Z,2.10
2018-11-13T02:29:13.837Z,1.00
2018-11-13T02:32:18.253Z,0.80
2018-11-13T02:35:22.745Z,0.80
2018-11-13T02:38:27.025Z,0.70
2018-11-13T02:41:31.522Z,1.50
2018-11-13T02:44:35.940Z,1.20
2018-11-13T02:47:40.897Z,2.17
2018-11-13T02:50:45.343Z,0.87
2018-11-13T02:53:49.786Z,0.77
2018-11-13T02:56:54.166Z,1.27
2018-11-13T02:59:58.643Z,1.30
2018-11-13T03:03:03.305Z,1.47
2018-11-13T03:06:07.719Z,1.50
2018-11-13T03:09:12.148Z,1.07
2018-11-13T03:12:16.506Z,2.07
2018-11-13T03:15:21.587Z,1.00
2018-11-13T03:18:25.944Z,1.70
2018-11-13T03:21:30.445Z,1.13
2018-11-13T03:24:35.279Z,1.30
2018-11-13T03:27:40.119Z,0.50
2018-11-13T03:30:44.537Z,1.93
2018-11-13T03:33:49.046Z,0.70
2018-11-13T03:36:53.451Z,2.23
2018-11-13T03:39:57.903Z,3.40
2018-11-13T03:43:02.304Z,1.80
2018-11-13T03:46:06.725Z,0.90
2018-11-13T03:49:11.113Z,0.97
2018-11-13T03:52:15.538Z,1.60
2018-11-13T03:55:20.571Z,0.80
2018-11-13T03:58:24.998Z,0.50
2018-11-13T04:01:29.460Z,1.07
2018-11-13T04:04:33.899Z,1.20
2018-11-13T04:07:47.607Z,0.67
2018-11-13T04:10:51.983Z,1.00
2018-11-13T04:13:56.396Z,0.83
2018-11-13T04:17:00.817Z,0.60
2018-11-13T04:20:09.523Z,0.70
2018-11-13T04:23:13.981Z,1.20
2018-11-13T04:26:18.405Z,0.70
2018-11-13T04:29:22.750Z,1.00
2018-11-13T04:32:27.122Z,1.00
2018-11-13T04:35:31.447Z,1.00
2018-11-13T04:38:35.803Z,3.30
2018-11-13T04:41:40.220Z,1.97
2018-11-13T04:44:44.592Z,0.87
2018-11-13T04:47:49.628Z,0.90
2018-11-13T04:50:53.990Z,1.27
2018-11-13T04:53:58.565Z,1.70
2018-11-13T04:57:02.985Z,0.83
2018-11-13T05:00:14.212Z,1.13
2018-11-13T05:03:18.577Z,1.20
2018-11-13T05:06:22.974Z,1.70
2018-11-13T05:09:27.353Z,1.60
2018-11-13T05:12:31.821Z,1.37
2018-11-13T05:15:36.165Z,1.33
2018-11-13T05:18:40.609Z,1.20
2018-11-13T05:21:45.072Z,1.63
2018-11-13T05:24:49.547Z,1.83
2018-11-13T05:27:54.118Z,1.20
2018-11-13T05:30:58.613Z,1.17
2018-11-13T05:34:03.077Z,1.23
2018-11-13T05:37:07.628Z,1.40
2018-11-13T05:40:18.349Z,1.07
2018-11-13T05:43:22.908Z,1.63
2018-11-13T05:46:28.362Z,1.37
2018-11-13T05:49:34.481Z,1.20
2018-11-13T05:52:39.365Z,1.00
2018-11-13T05:55:43.736Z,1.37
2018-11-13T05:58:48.483Z,2.67
2018-11-13T06:01:53.000Z,1.83
2018-11-13T06:04:57.816Z,1.97
2018-11-13T06:08:02.579Z,1.70
2018-11-13T06:11:07.500Z,1.27
2018-11-13T06:14:13.923Z,1.50
2018-11-13T06:17:19.956Z,2.43
2018-11-13T06:20:24.496Z,2.50
2018-11-13T06:23:28.986Z,2.20
2018-11-13T06:26:33.747Z,2.93
2018-11-13T06:29:38.398Z,2.73
2018-11-13T06:32:43.492Z,4.13
2018-11-13T06:35:48.248Z,2.40
2018-11-13T06:38:53.186Z,3.47
2018-11-13T06:41:57.875Z,5.47
2018-11-13T06:45:02.810Z,3.23
2018-11-13T06:48:07.662Z,3.07
2018-11-13T06:51:12.572Z,3.47
2018-11-13T06:55:30.048Z,3.53
2018-11-13T06:58:34.886Z,3.67
2018-11-13T07:01:39.528Z,2.50
2018-11-13T07:04:44.942Z,1.40
2018-11-13T07:07:49.642Z,1.30
2018-11-13T07:10:54.444Z,1.93
2018-11-13T07:13:59.147Z,3.37
2018-11-13T07:17:03.915Z,1.50
2018-11-13T07:20:09.052Z,1.83
2018-11-13T07:23:13.799Z,1.67
2018-11-13T07:26:18.985Z,3.37
2018-11-13T07:29:23.654Z,3.23
2018-11-13T07:32:28.321Z,1.67
2018-11-13T07:35:33.008Z,3.77
2018-11-13T07:38:37.820Z,2.07
2018-11-13T07:41:42.685Z,1.67
2018-11-13T07:44:47.572Z,2.07
2018-11-13T07:47:53.115Z,1.63
2018-11-13T07:50:57.973Z,2.17
2018-11-13T07:54:02.981Z,2.47
2018-11-13T07:57:08.727Z,1.87
2018-11-13T08:00:17.993Z,4.20
2018-11-13T08:03:39.870Z,1.27
2018-11-13T08:06:44.701Z,2.37
2018-11-13T08:09:49.449Z,1.77
2018-11-13T08:12:54.367Z,1.77
2018-11-13T08:15:59.435Z,1.43
2018-11-13T08:19:04.285Z,1.47
2018-11-13T08:22:09.266Z,1.33
2018-11-13T08:25:14.218Z,1.93
2018-11-13T08:28:19.038Z,2.73
2018-11-13T08:31:23.894Z,2.90
2018-11-13T08:34:28.784Z,1.40
2018-11-13T08:37:33.780Z,3.83
2018-11-13T08:40:38.579Z,1.83
2018-11-13T08:43:43.425Z,1.23
2018-11-13T08:46:48.056Z,0.93
2018-11-13T08:49:53.145Z,0.93
2018-11-13T08:52:57.869Z,1.10
2018-11-13T08:56:02.463Z,0.70
2018-11-13T08:59:08.264Z,0.83
2018-11-13T09:02:13.003Z,0.60
2018-11-13T09:05:18.348Z,0.60
2018-11-13T09:08:22.997Z,0.80
2018-11-13T09:11:31.650Z,0.50
2018-11-13T09:14:36.415Z,0.77
2018-11-13T09:17:41.377Z,0.40
2018-11-13T09:20:46.208Z,0.83
2018-11-13T09:23:50.953Z,0.57
2018-11-13T09:26:55.856Z,0.80
2018-11-13T09:30:00.850Z,0.57
2018-11-13T09:33:05.993Z,0.67
2018-11-13T09:36:10.767Z,0.30
2018-11-13T09:39:15.696Z,0.40
2018-11-13T09:42:20.889Z,0.30
2018-11-13T09:45:25.521Z,1.27
2018-11-13T09:48:30.111Z,0.40
2018-11-13T09:51:35.362Z,1.70
2018-11-13T09:54:40.249Z,1.13
2018-11-13T09:57:50.324Z,0.60
2018-11-13T10:01:00.797Z,0.70
2018-11-13T10:04:15.811Z,1.20
2018-11-13T10:07:20.114Z,0.53
2018-11-13T10:10:25.717Z,2.77
2018-11-13T10:13:35.104Z,5.37
2018-11-13T10:16:40.677Z,2.03
2018-11-13T10:19:46.337Z,1.67
2018-11-13T10:22:52.307Z,2.97
2018-11-13T10:26:03.173Z,1.97
2018-11-13T10:29:10.227Z,0.70
2018-11-13T10:32:15.354Z,1.30
2018-11-13T10:35:23.062Z,1.33
2018-11-13T10:38:31.676Z,2.50
2018-11-13T10:41:38.586Z,5.53
2018-11-13T10:44:44.107Z,3.00
2018-11-13T10:47:48.981Z,3.33
2018-11-13T10:50:54.064Z,2.17
2018-11-13T10:54:00.661Z,2.47
2018-11-13T10:57:06.159Z,1.17
2018-11-13T11:00:19.082Z,1.40
2018-11-13T11:03:30.271Z,3.70
2018-11-13T11:06:36.802Z,1.27
2018-11-13T11:09:41.890Z,1.67
2018-11-13T11:12:46.696Z,1.23
2018-11-13T11:15:51.368Z,1.53
2018-11-13T11:18:56.168Z,1.43
2018-11-13T11:22:00.784Z,1.10
2018-11-13T11:25:07.557Z,0.83
2018-11-13T11:28:12.641Z,2.00
2018-11-13T11:31:17.388Z,0.37
2018-11-13T11:34:22.044Z,0.40
2018-11-13T11:37:27.092Z,1.70
2018-11-13T11:40:34.219Z,0.20
2018-11-13T11:43:39.570Z,0.68
2018-11-13T11:46:44.179Z,0.80
2018-11-13T11:49:49.332Z,0.20
2018-11-13T11:52:58.060Z,0.67
2018-11-13T11:56:05.126Z,0.20
2018-11-13T11:59:09.945Z,0.23
2018-11-13T12:02:15.529Z,0.35
2018-11-13T12:05:24.107Z,0.40
2018-11-13T12:08:32.898Z,0.20
2018-11-13T12:11:38.660Z,0.20
2018-11-13T12:14:45.802Z,0.10
2018-11-13T12:17:57.955Z,1.50
2018-11-13T12:21:02.783Z,0.40
2018-11-13T12:24:07.502Z,0.10
2018-11-13T12:27:11.985Z,0.10
2018-11-13T12:30:20.384Z,0.83
2018-11-13T12:33:24.866Z,0.43
2018-11-13T12:36:29.376Z,0.10
2018-11-13T12:39:33.825Z,1.17
2018-11-13T12:42:38.297Z,0.27
2018-11-13T12:45:42.711Z,0.40
2018-11-13T12:48:47.271Z,0.57
2018-11-13T12:51:56.781Z,0.37
2018-11-13T12:55:01.385Z,0.27
2018-11-13T12:58:06.837Z,1.30
2018-11-13T13:01:11.472Z,0.97
2018-11-13T13:04:16.048Z,0.35
2018-11-13T13:07:20.488Z,0.33
2018-11-13T13:10:24.921Z,0.40
2018-11-13T13:13:29.358Z,1.03
2018-11-13T13:16:33.876Z,0.23
2018-11-13T13:19:38.445Z,0.30
2018-11-13T13:22:43.252Z,0.30
2018-11-13T13:25:47.830Z,1.00
2018-11-13T13:28:52.392Z,0.30
2018-11-13T13:31:57.012Z,5.23
2018-11-13T13:35:01.542Z,1.10
2018-11-13T13:38:07.415Z,0.45
2018-11-13T13:41:11.916Z,0.20
2018-11-13T13:44:16.532Z,0.30
2018-11-13T13:47:21.012Z,1.98
2018-11-13T13:50:25.621Z,1.23
2018-11-13T13:53:30.278Z,1.30
2018-11-13T13:56:35.204Z,0.40
2018-11-13T13:59:39.901Z,0.40
2018-11-13T14:02:44.375Z,0.50
2018-11-13T14:05:49.133Z,0.50
2018-11-13T14:08:53.714Z,0.60
2018-11-13T14:11:58.154Z,0.80
2018-11-13T14:15:04.104Z,2.20
2018-11-13T14:18:08.440Z,0.30
2018-11-13T14:21:13.046Z,0.37
2018-11-13T14:24:17.567Z,2.37
2018-11-13T14:27:22.369Z,4.17
2018-11-13T14:30:29.024Z,2.33
2018-11-13T14:33:33.632Z,8.83
2018-11-13T14:36:38.147Z,3.60
2018-11-13T14:39:42.541Z,1.50
2018-11-13T14:42:47.440Z,2.10
2018-11-13T14:45:51.946Z,1.63
2018-11-13T14:48:56.539Z,11.05
2018-11-13T14:52:07.579Z,1.23
2018-11-13T14:55:16.881Z,1.23
2018-11-13T14:58:21.255Z,0.37
2018-11-13T15:01:25.746Z,0.43
2018-11-13T15:04:30.137Z,0.40
2018-11-13T15:07:34.611Z,2.23
2018-11-13T15:10:46.345Z,1.33
2018-11-13T15:13:50.842Z,2.40
2018-11-13T15:17:02.670Z,1.30
2018-11-13T15:20:11.948Z,1.90
2018-11-13T15:23:17.561Z,2.10
2018-11-13T15:26:22.139Z,1.70
2018-11-13T15:29:29.493Z,2.47
2018-11-13T15:32:39.091Z,0.40
2018-11-13T15:35:49.388Z,0.40
2018-11-13T15:39:12.172Z,1.00
2018-11-13T15:42:17.651Z,2.10
2018-11-13T15:45:23.098Z,0.60
2018-11-13T15:48:28.532Z,0.70
2018-11-13T15:51:33.031Z,0.60
2018-11-13T15:54:39.477Z,0.50
2018-11-13T15:57:50.192Z,1.40
2018-11-13T16:00:56.801Z,0.47
2018-11-13T16:04:02.285Z,0.70
2018-11-13T16:07:07.073Z,0.60
2018-11-13T16:10:12.608Z,2.67
2018-11-13T16:13:21.268Z,2.00
2018-11-13T16:16:25.785Z,1.50
2018-11-13T16:19:30.289Z,1.20
2018-11-13T16:22:34.881Z,1.03
2018-11-13T16:25:39.420Z,0.70
2018-11-13T16:28:45.344Z,1.47
2018-11-13T16:31:50.805Z,0.90
2018-11-13T16:34:55.353Z,0.83
2018-11-13T16:38:01.601Z,0.90
2018-11-13T16:41:06.079Z,1.73
2018-11-13T16:44:10.948Z,1.60
2018-11-13T16:47:21.409Z,1.00
2018-11-13T16:50:29.172Z,0.83
2018-11-13T16:53:39.921Z,1.75
2018-11-13T16:56:47.937Z,1.27
2018-11-13T16:59:59.297Z,1.10
2018-11-13T17:03:03.767Z,1.10
2018-11-13T17:06:37.243Z,2.00
2018-11-13T17:09:56.183Z,1.23
2018-11-13T17:13:01.571Z,2.87
2018-11-13T17:16:22.646Z,3.17
2018-11-13T17:19:27.178Z,1.40
2018-11-13T17:22:31.703Z,1.90
2018-11-13T17:25:41.752Z,2.67
2018-11-13T17:28:52.793Z,2.53
2018-11-13T17:32:01.968Z,2.00
2018-11-13T17:35:07.993Z,3.13
2018-11-13T17:38:12.863Z,1.73
2018-11-13T17:41:17.248Z,2.20
2018-11-13T17:44:21.931Z,4.50
2018-11-13T17:47:27.479Z,2.43
2018-11-13T17:50:34.385Z,4.60
2018-11-13T17:53:43.612Z,2.70
2018-11-13T17:56:51.224Z,1.83
2018-11-13T17:59:56.990Z,1.67
2018-11-13T18:03:04.723Z,1.53
2018-11-13T18:06:09.353Z,1.53
2018-11-13T18:09:15.372Z,2.10
2018-11-13T18:12:20.303Z,2.37
2018-11-13T18:15:26.841Z,2.70
2018-11-13T18:18:31.861Z,3.67
2018-11-13T18:21:41.183Z,2.50
2018-11-13T18:24:48.580Z,2.07
2018-11-13T18:27:54.832Z,3.63
2018-11-13T18:31:00.413Z,6.80
2018-11-13T18:34:05.806Z,6.23
2018-11-13T18:37:13.295Z,4.73
2018-11-13T18:43:31.259Z,2.97
2018-11-13T18:46:35.583Z,2.00
2018-11-13T18:49:40.113Z,1.60
2018-11-13T18:52:44.725Z,4.47
2018-11-13T18:55:49.063Z,1.10
2018-11-13T18:58:53.577Z,1.33
2018-11-13T19:01:58.012Z,1.00
2018-11-13T19:05:02.470Z,1.30
2018-11-13T19:08:07.684Z,1.57
2018-11-13T19:11:12.341Z,2.67
2018-11-13T19:14:16.611Z,1.00
2018-11-13T19:17:21.087Z,1.40
2018-11-13T19:20:26.423Z,4.00
2018-11-13T19:23:30.886Z,1.63
2018-11-13T19:26:35.290Z,1.70
2018-11-13T19:29:39.896Z,4.10
2018-11-13T19:32:44.478Z,3.07
2018-11-13T19:35:49.034Z,3.40
2018-11-13T19:38:53.402Z,4.57
2018-11-13T19:41:57.792Z,3.70
2018-11-13T19:45:02.208Z,2.33
2018-11-13T19:48:06.720Z,1.52
2018-11-13T19:51:11.048Z,2.17
2018-11-13T19:54:15.397Z,2.43
2018-11-13T19:57:19.699Z,3.43
2018-11-13T20:00:31.511Z,2.37
2018-11-13T20:03:35.832Z,2.63
2018-11-13T20:06:40.132Z,2.67
2018-11-13T20:09:44.609Z,2.43
2018-11-13T20:12:49.739Z,2.27
2018-11-13T20:15:54.238Z,2.20
2018-11-13T20:18:58.865Z,7.10
2018-11-13T20:22:03.374Z,1.87
2018-11-13T20:25:10.942Z,2.77
2018-11-13T20:28:15.445Z,3.60
2018-11-13T20:31:20.017Z,2.83
2018-11-13T20:34:24.269Z,6.43
2018-11-13T20:37:29.488Z,12.33
2018-11-13T20:40:35.179Z,20.47
2018-11-13T20:43:39.685Z,23.10
2018-11-13T20:46:44.527Z,10.23
2018-11-13T20:49:48.987Z,5.87
2018-11-13T20:52:53.420Z,3.83
2018-11-13T20:55:57.791Z,3.27
2018-11-13T20:59:02.168Z,4.20
2018-11-13T21:02:06.716Z,3.47
2018-11-13T21:05:11.039Z,3.53
2018-11-13T21:08:15.432Z,4.77
2018-11-13T21:11:19.825Z,3.47
2018-11-13T21:14:24.131Z,2.80
2018-11-13T21:17:28.473Z,3.58
2018-11-13T21:20:32.927Z,1.90
2018-11-13T21:23:37.300Z,2.00
2018-11-13T21:26:41.600Z,2.13
2018-11-13T21:29:46.079Z,3.10
2018-11-13T21:32:51.103Z,3.63
2018-11-13T21:35:55.386Z,2.47
2018-11-13T21:38:59.712Z,3.33
2018-11-13T21:42:04.895Z,4.17
2018-11-13T21:45:10.351Z,3.30
2018-11-13T21:48:14.812Z,2.97
2018-11-13T21:51:19.119Z,6.00
2018-11-13T21:54:23.498Z,5.60
2018-11-13T21:57:27.767Z,7.73
2018-11-13T22:00:33.883Z,7.53
2018-11-13T22:03:38.244Z,6.93
2018-11-13T22:06:44.543Z,6.00
2018-11-13T22:09:48.820Z,2.20
2018-11-13T22:12:54.305Z,3.57
2018-11-13T22:15:58.210Z,2.60
2018-11-13T22:19:02.499Z,9.30
2018-11-13T22:22:06.919Z,15.97
2018-11-13T22:25:15.834Z,13.40
2018-11-13T22:28:20.203Z,13.07
2018-11-13T22:31:24.590Z,15.10
2018-11-13T22:34:28.872Z,16.60
2018-11-13T22:37:33.172Z,10.57
2018-11-13T22:40:37.477Z,12.33
2018-11-13T22:43:41.763Z,17.37
2018-11-13T22:46:46.091Z,18.83
2018-11-13T22:49:50.383Z,14.33
2018-11-13T22:52:55.082Z,8.13
2018-11-13T22:55:59.324Z,5.63
2018-11-13T22:59:03.612Z,3.70
2018-11-13T23:02:07.928Z,5.33
2018-11-13T23:05:12.304Z,6.63
2018-11-13T23:08:17.883Z,1.80
2018-11-13T23:11:22.155Z,2.03
2018-11-13T23:14:26.436Z,1.67
2018-11-13T23:17:30.775Z,1.60
2018-11-13T23:20:35.066Z,2.67
2018-11-13T23:23:39.335Z,3.60
2018-11-13T23:26:43.656Z,4.57
2018-11-13T23:29:47.922Z,2.83
2018-11-13T23:32:52.604Z,1.63
2018-11-13T23:35:57.108Z,2.23
2018-11-13T23:39:01.276Z,2.40
2018-11-13T23:42:05.638Z,2.30
2018-11-13T23:45:10.456Z,1.00
2018-11-13T23:48:14.754Z,1.10
2018-11-13T23:51:19.169Z,1.40
2018-11-13T23:54:23.491Z,0.90
2018-11-13T23:57:27.811Z,1.57
